createdAt,value
2024-03-05T08:05:05.968Z,8.00
2024-03-05T08:15:40.955Z,8.40
2024-03-05T08:26:15.891Z,8.50
2024-03-05T08:36:51.463Z,8.60
2024-03-05T08:47:26.564Z,8.60
2024-03-05T08:58:02.048Z,8.60
2024-03-05T09:08:38.684Z,8.70
2024-03-05T09:19:15.643Z,8.80
2024-03-05T09:29:50.523Z,8.70
2024-03-05T09:40:25.748Z,8.70
2024-03-05T09:51:01.205Z,8.60
2024-03-05T10:01:38.541Z,8.60
2024-03-05T10:12:16.947Z,8.70
2024-03-05T10:22:53.467Z,8.70
2024-03-05T10:33:31.184Z,8.70
2024-03-05T10:44:08.428Z,8.80
2024-03-05T10:54:46.822Z,8.70
2024-03-05T11:05:22.194Z,8.80
2024-03-05T11:15:57.943Z,9.10
2024-03-05T11:26:35.141Z,9.00
2024-03-05T11:37:15.841Z,9.20
2024-03-05T11:47:51.423Z,9.30
2024-03-05T11:58:27.348Z,9.30
2024-03-05T12:09:22.612Z,9.30
2024-03-05T12:20:10.033Z,9.10
2024-03-05T12:30:45.464Z,9.10
2024-03-05T12:41:21.600Z,8.90
2024-03-05T12:52:03.121Z,9.10
2024-03-05T13:02:39.334Z,9.30
2024-03-05T13:13:14.352Z,9.40
2024-03-05T13:23:49.224Z,9.50
2024-03-05T13:34:24.361Z,9.50
2024-03-05T13:44:58.851Z,9.50
2024-03-05T13:55:34.149Z,9.70
2024-03-05T14:06:09.203Z,9.70
2024-03-05T14:16:45.885Z,9.80
2024-03-05T14:27:20.798Z,9.70
2024-03-05T14:37:59.530Z,9.40
2024-03-05T14:48:35.583Z,9.30
2024-03-05T14:59:10.913Z,9.20
2024-03-05T15:09:46.769Z,9.20
2024-03-05T15:20:23.189Z,9.50
2024-03-05T15:30:58.116Z,9.70
2024-03-05T15:41:33.067Z,9.70
